Time;durP1;ratioP1;P1;durP2;ratioP2;P2;SDS_P1;SDS_P2;PMS_P1;PMS_P2;Temp;Humidity;BMP_temperature;BMP_pressure;BME280_temperature;BME280_humidity;BME280_pressure;Samples;Min_cycle;Max_cycle;Signal;HPM_P1;HPM_P2
2021/11/09 00:01:51;;;;;;;10.38;2.38;;;5.20;99.90;;;;;;5018266;28;20021;-77
2021/11/09 00:04:19;;;;;;;9.40;2.38;;;5.20;99.90;;;;;;5018376;28;20018;-77
2021/11/09 00:06:54;;;;;;;14.32;3.28;;;5.20;99.90;;;;;;5016914;28;20021;-77
2021/11/09 00:09:20;;;;;;;13.82;2.50;;;5.20;99.90;;;;;;5036043;28;20029;-77
2021/11/09 00:11:46;;;;;;;13.93;2.90;;;5.20;99.90;;;;;;5017979;28;20386;-77
2021/11/09 00:14:12;;;;;;;11.70;3.08;;;5.10;99.90;;;;;;5035324;28;20080;-77
2021/11/09 00:16:38;;;;;;;12.88;3.33;;;5.10;99.90;;;;;;5017646;28;20029;-76
2021/11/09 00:19:04;;;;;;;12.52;3.30;;;5.10;99.90;;;;;;5035573;28;20017;-76
2021/11/09 00:21:30;;;;;;;15.55;2.60;;;5.10;99.90;;;;;;5035783;28;20120;-76
2021/11/09 00:24:00;;;;;;;11.45;2.85;;;5.00;99.90;;;;;;5035710;28;20378;-77
2021/11/09 00:26:27;;;;;;;11.00;3.53;;;5.00;99.90;;;;;;5017678;28;20049;-77
2021/11/09 00:28:54;;;;;;;12.90;2.97;;;5.00;99.90;;;;;;5035534;28;20457;-76
2021/11/09 00:31:20;;;;;;;10.07;3.70;;;5.00;99.90;;;;;;5017622;28;20554;-77
2021/11/09 00:33:45;;;;;;;13.27;2.88;;;5.00;99.90;;;;;;5017469;28;20014;-77
2021/11/09 00:36:14;;;;;;;13.45;3.60;;;5.00;99.90;;;;;;5035034;28;20040;-77
2021/11/09 00:38:40;;;;;;;18.52;2.75;;;5.00;99.90;;;;;;5017651;28;20018;-77
2021/11/09 00:41:06;;;;;;;12.73;2.83;;;4.90;99.90;;;;;;5017211;28;20060;-77
2021/11/09 00:43:32;;;;;;;13.63;3.08;;;5.00;99.90;;;;;;5017515;28;20116;-77
2021/11/09 00:45:58;;;;;;;11.50;3.20;;;5.00;99.90;;;;;;5034937;28;20037;-77
2021/11/09 00:48:23;;;;;;;14.77;2.63;;;4.90;99.90;;;;;;5017356;28;20029;-77
2021/11/09 00:50:50;;;;;;;12.45;3.00;;;4.90;99.90;;;;;;5034634;28;20037;-76
2021/11/09 00:53:17;;;;;;;15.13;3.55;;;4.90;99.90;;;;;;5017584;28;20029;-77
2021/11/09 00:55:44;;;;;;;10.23;2.92;;;4.90;99.90;;;;;;5016867;28;20144;-77
2021/11/09 00:58:10;;;;;;;19.20;2.92;;;4.90;99.90;;;;;;5017103;28;20013;-77
2021/11/09 01:00:37;;;;;;;9.32;2.60;;;4.90;99.90;;;;;;5034878;28;20056;-77
2021/11/09 01:03:04;;;;;;;5.70;2.00;;;4.90;99.90;;;;;;5017255;28;20083;-77
2021/11/09 01:05:30;;;;;;;16.50;3.45;;;4.90;99.90;;;;;;5016857;28;20022;-76
2021/11/09 01:08:00;;;;;;;20.10;3.20;;;4.90;99.90;;;;;;5016898;28;20048;-76
2021/11/09 01:10:26;;;;;;;;;;;4.90;99.90;;;;;;5035232;28;20053;-77
2021/11/09 01:12:53;;;;;;;13.30;2.72;;;4.90;99.90;;;;;;5034933;28;19999;-77
2021/11/09 01:15:19;;;;;;;11.60;3.08;;;4.90;99.90;;;;;;5016964;28;20028;-77
2021/11/09 01:17:45;;;;;;;10.30;2.92;;;4.80;99.90;;;;;;5016117;28;20474;-76
2021/11/09 01:20:14;;;;;;;11.45;2.63;;;4.80;99.90;;;;;;5033931;28;20057;-76
2021/11/09 01:22:40;;;;;;;11.75;3.33;;;4.80;99.90;;;;;;5034699;28;20025;-76
2021/11/09 01:25:06;;;;;;;14.00;3.30;;;4.80;99.90;;;;;;5034082;28;20021;-76
2021/11/09 01:27:32;;;;;;;12.05;3.05;;;4.80;99.90;;;;;;5016494;28;20041;-77
2021/11/09 01:29:58;;;;;;;18.95;3.38;;;4.80;99.90;;;;;;5016181;28;20030;-76
2021/11/09 01:32:24;;;;;;;16.80;3.67;;;4.70;99.90;;;;;;5016135;28;20021;-76
2021/11/09 01:34:49;;;;;;;16.35;3.58;;;4.70;99.90;;;;;;5016146;28;20389;-75
2021/11/09 01:37:15;;;;;;;7.50;1.90;;;4.70;99.90;;;;;;5016176;28;20033;-75
2021/11/09 01:39:41;;;;;;;13.57;2.85;;;4.70;99.90;;;;;;5016656;28;20549;-75
2021/11/09 01:42:08;;;;;;;11.30;2.70;;;4.60;99.90;;;;;;5034313;28;20057;-77
2021/11/09 01:44:34;;;;;;;11.57;3.03;;;4.60;99.90;;;;;;5033930;28;20429;-78
2021/11/09 01:47:00;;;;;;;15.10;3.22;;;4.60;99.90;;;;;;5015898;28;20033;-77
2021/11/09 01:49:26;;;;;;;13.60;3.20;;;4.60;99.90;;;;;;5033897;28;20580;-78
2021/11/09 01:51:52;;;;;;;13.63;3.40;;;4.60;99.90;;;;;;5016250;28;20076;-78
2021/11/09 01:54:18;;;;;;;13.82;3.78;;;4.60;99.90;;;;;;5017306;28;20401;-78
2021/11/09 01:56:44;;;;;;;11.70;3.65;;;4.60;99.90;;;;;;5033631;28;20029;-78
2021/11/09 01:59:10;;;;;;;9.70;2.85;;;4.60;99.90;;;;;;5033766;28;20026;-78
2021/11/09 02:01:36;;;;;;;11.70;3.85;;;4.60;99.90;;;;;;5033472;28;20028;-78
2021/11/09 02:04:05;;;;;;;12.93;2.88;;;4.60;99.90;;;;;;5016089;28;20195;-78
2021/11/09 02:06:31;;;;;;;15.43;4.53;;;4.40;99.90;;;;;;5033736;28;20488;-78
2021/11/09 02:08:59;;;;;;;14.00;3.50;;;4.60;99.90;;;;;;5015624;28;20108;-78
2021/11/09 02:11:25;;;;;;;12.27;2.88;;;4.60;99.90;;;;;;5033600;28;20021;-78
2021/11/09 02:13:51;;;;;;;25.00;4.32;;;4.60;99.90;;;;;;5033731;28;20533;-78
2021/11/09 02:16:16;;;;;;;15.60;3.63;;;4.60;99.90;;;;;;5015356;28;20474;-77
2021/11/09 02:18:42;;;;;;;14.20;2.90;;;4.60;99.90;;;;;;5033611;28;20034;-77
2021/11/09 02:21:11;;;;;;;19.23;3.83;;;4.60;99.90;;;;;;5033446;28;20378;-77
2021/11/09 02:23:41;;;;;;;16.80;3.72;;;4.70;99.90;;;;;;5016136;28;20036;-78
2021/11/09 02:26:09;;;;;;;18.55;3.63;;;4.70;99.90;;;;;;5015722;28;20036;-77
2021/11/09 02:28:34;;;;;;;16.15;3.72;;;4.70;99.90;;;;;;5015672;28;20026;-78
2021/11/09 02:31:01;;;;;;;18.38;4.28;;;4.80;99.90;;;;;;5019455;28;20389;-78
2021/11/09 02:33:27;;;;;;;22.73;4.60;;;4.80;99.90;;;;;;5019773;28;20022;-78
2021/11/09 02:35:53;;;;;;;16.85;4.78;;;4.80;99.90;;;;;;5019313;28;20075;-77
2021/11/09 02:38:19;;;;;;;18.77;3.65;;;4.80;99.90;;;;;;5019534;28;20028;-77
2021/11/09 02:40:45;;;;;;;14.30;3.55;;;4.80;99.90;;;;;;5019202;28;20025;-77
2021/11/09 02:43:14;;;;;;;11.57;3.70;;;4.90;99.90;;;;;;5037365;28;20033;-76
2021/11/09 02:48:42;;;;;;;11.00;3.72;;;4.80;99.90;;;;;;5037354;28;20030;-77
2021/11/09 02:51:21;;;;;;;20.85;3.88;;;4.80;99.90;;;;;;5018966;28;20030;-76
2021/11/09 02:56:29;;;;;;;14.02;4.10;;;4.80;99.90;;;;;;5036694;28;20258;-77
2021/11/09 03:01:37;;;;;;;19.50;3.55;;;4.80;99.90;;;;;;5036748;28;20029;-77
2021/11/09 03:04:13;;;;;;;15.20;3.92;;;4.80;99.90;;;;;;5019477;28;20032;-77
2021/11/09 03:06:49;;;;;;;15.82;4.10;;;4.80;99.90;;;;;;5016101;28;20406;-77
2021/11/09 03:09:21;;;;;;;19.05;4.88;;;4.70;99.90;;;;;;5015513;28;20081;-76
2021/11/09 03:11:57;;;;;;;19.50;4.10;;;4.70;99.90;;;;;;5017428;28;20029;-76
2021/11/09 03:14:25;;;;;;;16.58;3.63;;;4.60;99.90;;;;;;5034713;28;20017;-76
2021/11/09 03:16:51;;;;;;;13.23;3.70;;;4.60;99.90;;;;;;5036814;28;20064;-76
2021/11/09 03:19:27;;;;;;;10.13;3.10;;;4.60;99.90;;;;;;5036646;28;20466;-76
2021/11/09 03:44:19;;;;;;;20.55;4.65;;;4.60;99.90;;;;;;5036050;28;20044;-78
2021/11/09 03:46:53;;;;;;;15.60;3.60;;;4.60;99.90;;;;;;5016744;28;20490;-78
2021/11/09 03:49:21;;;;;;;15.38;3.40;;;4.60;99.90;;;;;;4999391;28;20105;-77
2021/11/09 03:51:48;;;;;;;14.25;3.92;;;4.60;99.90;;;;;;5016878;28;20040;-77
2021/11/09 03:54:15;;;;;;;19.88;4.35;;;4.60;99.90;;;;;;5014960;28;20489;-78
2021/11/09 03:57:09;;;;;;;20.77;4.70;;;4.50;99.90;;;;;;5018060;28;20021;-77
2021/11/09 03:59:42;;;;;;;15.20;3.95;;;4.50;99.90;;;;;;5034949;28;20036;-77
2021/11/09 04:04:51;;;;;;;19.70;3.88;;;4.60;99.90;;;;;;5035678;28;20131;-77
2021/11/09 04:10:00;;;;;;;11.77;4.47;;;4.60;99.90;;;;;;5035946;28;20037;-77
2021/11/09 04:12:47;;;;;;;11.95;3.40;;;4.50;99.90;;;;;;4998231;28;20022;-78
2021/11/09 04:15:25;;;;;;;17.75;3.35;;;4.50;99.90;;;;;;5005743;28;20036;-78
2021/11/09 04:25:51;;;;;;;12.23;2.70;;;4.40;99.90;;;;;;5035446;28;20053;-77
2021/11/09 04:50:37;;;;;;;14.65;4.00;;;4.40;99.90;;;;;;4935742;29;20054;-75
2021/11/09 05:01:47;;;;;;;16.65;3.80;;;4.40;99.90;;;;;;4973755;28;20186;-75
2021/11/09 05:09:45;;;;;;;21.88;5.25;;;4.50;99.90;;;;;;5034469;28;20064;-77
2021/11/09 05:12:10;;;;;;;13.25;4.88;;;4.50;99.90;;;;;;5016813;28;20049;-78
2021/11/09 05:14:36;;;;;;;19.60;5.15;;;4.50;99.90;;;;;;5034601;28;20493;-77
2021/11/09 05:17:02;;;;;;;12.80;4.32;;;4.40;99.90;;;;;;5034349;28;20393;-78
2021/11/09 05:19:28;;;;;;;16.42;4.57;;;4.40;99.90;;;;;;5016619;28;20025;-78
2021/11/09 05:21:55;;;;;;;21.05;5.32;;;4.40;99.90;;;;;;5034529;28;20029;-78
2021/11/09 05:24:20;;;;;;;12.80;4.95;;;4.40;99.90;;;;;;5034973;28;20489;-78
2021/11/09 05:26:46;;;;;;;31.92;6.22;;;4.40;99.90;;;;;;5016148;28;20025;-78
2021/11/09 05:29:13;;;;;;;17.92;5.25;;;4.40;99.90;;;;;;5034000;28;20111;-78
2021/11/09 05:31:40;;;;;;;17.88;4.90;;;4.60;99.90;;;;;;5033741;28;20412;-78
2021/11/09 05:34:06;;;;;;;12.15;4.32;;;4.30;99.90;;;;;;5034107;28;20116;-78
2021/11/09 05:36:34;;;;;;;18.83;5.18;;;4.30;99.90;;;;;;5033673;28;20057;-78
2021/11/09 05:39:09;;;;;;;34.40;6.00;;;4.30;99.90;;;;;;5016108;28;20017;-78
2021/11/09 05:41:37;;;;;;;23.20;7.18;;;4.30;99.90;;;;;;5033755;28;20093;-78
2021/11/09 05:44:03;;;;;;;12.93;3.90;;;4.30;99.90;;;;;;5016070;28;20029;-78
2021/11/09 05:46:29;;;;;;;19.63;5.13;;;4.30;99.90;;;;;;5033491;28;20108;-78
2021/11/09 05:48:54;;;;;;;16.98;4.85;;;4.30;99.90;;;;;;5015927;28;20076;-78
2021/11/09 05:51:20;;;;;;;26.30;7.35;;;4.30;99.90;;;;;;5016090;28;20029;-78
2021/11/09 05:53:47;;;;;;;20.02;5.30;;;4.30;99.90;;;;;;5034000;28;20026;-78
2021/11/09 05:56:13;;;;;;;24.15;5.22;;;4.30;99.90;;;;;;5015804;28;20120;-78
2021/11/09 05:58:38;;;;;;;17.45;5.60;;;4.40;99.90;;;;;;5015944;28;20071;-77
2021/11/09 06:01:04;;;;;;;18.95;5.88;;;4.40;99.90;;;;;;5033452;28;20497;-77
2021/11/09 06:03:29;;;;;;;12.30;5.35;;;4.40;99.90;;;;;;5032726;28;20033;-77
2021/11/09 06:05:55;;;;;;;13.32;4.82;;;4.40;99.90;;;;;;5033418;28;20509;-78
2021/11/09 06:08:21;;;;;;;19.98;5.40;;;4.40;99.90;;;;;;5033752;28;20022;-78
2021/11/09 06:10:48;;;;;;;14.05;4.55;;;4.40;99.90;;;;;;5004445;28;20036;-78
2021/11/09 06:13:14;;;;;;;22.08;5.22;;;4.40;99.90;;;;;;5033718;28;20053;-78
2021/11/09 06:15:39;;;;;;;19.67;6.10;;;4.40;99.90;;;;;;5015685;28;20029;-77
2021/11/09 06:18:06;;;;;;;14.48;5.35;;;4.40;99.90;;;;;;5015753;28;20030;-78
2021/11/09 06:20:31;;;;;;;24.52;5.32;;;4.50;99.90;;;;;;5015237;28;21305;-78
2021/11/09 06:22:57;;;;;;;20.48;5.53;;;4.50;99.90;;;;;;5033347;28;20474;-78
2021/11/09 06:25:23;;;;;;;19.02;5.80;;;4.50;99.90;;;;;;5033448;28;20025;-78
2021/11/09 06:27:52;;;;;;;25.38;5.88;;;4.50;99.90;;;;;;5033390;28;20028;-77
2021/11/09 06:30:19;;;;;;;21.60;5.50;;;4.50;99.90;;;;;;5015442;28;20032;-76
2021/11/09 06:32:48;;;;;;;20.40;5.80;;;4.60;99.90;;;;;;5033360;28;20033;-77
2021/11/09 06:35:14;;;;;;;23.25;5.40;;;4.60;99.90;;;;;;5033055;28;20034;-78
2021/11/09 06:37:39;;;;;;;15.40;5.43;;;4.60;99.90;;;;;;5015734;28;20018;-77
2021/11/09 06:40:07;;;;;;;25.58;5.35;;;4.60;99.90;;;;;;5033448;28;20492;-77
2021/11/09 06:42:33;;;;;;;19.50;6.85;;;4.60;99.90;;;;;;5015649;28;20025;-77
2021/11/09 06:44:59;;;;;;;24.48;5.63;;;4.60;99.90;;;;;;5033740;28;20025;-77
2021/11/09 06:47:25;;;;;;;26.85;6.68;;;4.60;99.90;;;;;;5033271;28;20385;-76
2021/11/09 06:49:51;;;;;;;18.17;4.63;;;4.60;99.90;;;;;;5033708;28;20022;-77
2021/11/09 06:52:17;;;;;;;24.58;5.65;;;4.60;99.90;;;;;;5033943;28;20024;-79
2021/11/09 06:54:43;;;;;;;20.83;6.25;;;4.60;99.90;;;;;;5033811;28;20116;-79
2021/11/09 06:57:12;;;;;;;20.13;5.78;;;4.60;99.90;;;;;;5017449;28;20112;-75
2021/11/09 06:59:38;;;;;;;25.52;5.97;;;4.60;99.90;;;;;;5015824;28;20068;-75
2021/11/09 07:02:05;;;;;;;18.75;5.97;;;4.70;99.90;;;;;;5033416;28;20424;-75
2021/11/09 07:04:31;;;;;;;24.98;6.03;;;4.80;99.90;;;;;;5033401;28;20067;-75
2021/11/09 07:06:57;;;;;;;23.08;6.25;;;4.80;99.90;;;;;;5033654;28;20022;-75
2021/11/09 07:09:23;;;;;;;23.25;6.82;;;4.90;99.90;;;;;;5015986;28;20018;-76
2021/11/09 07:11:49;;;;;;;16.50;4.57;;;4.90;99.90;;;;;;5034059;28;20032;-77
2021/11/09 07:14:15;;;;;;;21.13;5.55;;;5.00;99.90;;;;;;5033398;28;20022;-77
2021/11/09 07:16:44;;;;;;;21.35;6.15;;;5.00;99.90;;;;;;5036403;28;20032;-77
2021/11/09 07:19:10;;;;;;;23.65;6.03;;;5.00;99.90;;;;;;5036999;28;20021;-76
2021/11/09 07:21:35;;;;;;;15.80;4.97;;;5.10;99.90;;;;;;5037305;28;20044;-76
2021/11/09 07:24:01;;;;;;;30.20;6.55;;;5.10;99.90;;;;;;5019283;28;20474;-77
2021/11/09 07:26:28;;;;;;;19.98;5.32;;;5.20;99.90;;;;;;5037189;28;20051;-76
2021/11/09 07:28:54;;;;;;;23.80;6.28;;;5.30;99.90;;;;;;5036888;28;20026;-77
2021/11/09 07:31:20;;;;;;;19.80;4.72;;;5.40;99.90;;;;;;5018777;28;20028;-77
2021/11/09 07:33:46;;;;;;;24.23;6.60;;;5.50;99.90;;;;;;5036786;28;20021;-76
2021/11/09 07:36:14;;;;;;;21.20;6.15;;;5.60;99.90;;;;;;5018538;28;20477;-76
2021/11/09 07:38:40;;;;;;;22.42;4.95;;;5.70;99.90;;;;;;5036273;28;20079;-76
2021/11/09 07:41:06;;;;;;;25.25;5.55;;;5.80;99.90;;;;;;5018930;28;20026;-76
2021/11/09 07:43:32;;;;;;;17.67;5.15;;;5.90;99.90;;;;;;5036600;28;20037;-76
2021/11/09 07:45:59;;;;;;;19.15;6.05;;;6.00;99.90;;;;;;5018791;28;20029;-76
2021/11/09 07:48:25;;;;;;;18.52;5.00;;;6.00;99.90;;;;;;5019076;28;20018;-76
2021/11/09 07:50:50;;;;;;;24.77;5.18;;;6.10;99.90;;;;;;5036042;28;20035;-76
2021/11/09 07:53:16;;;;;;;19.67;5.07;;;6.20;99.90;;;;;;5018262;28;20026;-76
2021/11/09 07:56:05;;;;;;;33.22;6.05;;;6.30;99.90;;;;;;5036681;28;20385;-76
2021/11/09 07:59:25;;;;;;;19.13;4.80;;;6.30;99.90;;;;;;5036065;28;20092;-76
2021/11/09 08:01:19;;;;;;;15.65;4.68;;;6.40;99.90;;;;;;5022323;28;20033;-76
2021/11/09 08:03:49;;;;;;;12.82;4.25;;;6.40;99.90;;;;;;5018445;28;20018;-76
2021/11/09 08:06:32;;;;;;;22.10;4.55;;;6.50;99.90;;;;;;5019125;28;20378;-76
2021/11/09 08:09:11;;;;;;;24.15;5.38;;;6.50;99.90;;;;;;5036075;28;20025;-76
2021/11/09 08:11:41;;;;;;;18.63;5.32;;;6.60;99.90;;;;;;5035879;28;20026;-77
2021/11/09 08:14:07;;;;;;;15.32;4.18;;;6.70;99.90;;;;;;5035949;28;20380;-76
2021/11/09 08:16:33;;;;;;;22.75;4.65;;;6.70;99.90;;;;;;5018485;28;20390;-76
2021/11/09 08:18:58;;;;;;;15.55;4.03;;;6.80;99.90;;;;;;5036054;28;20025;-76
2021/11/09 08:21:24;;;;;;;13.65;3.90;;;6.80;99.90;;;;;;5036430;28;20025;-76
2021/11/09 08:23:50;;;;;;;18.55;4.22;;;7.50;99.90;;;;;;5035953;28;20036;-76
2021/11/09 08:26:22;;;;;;;25.13;5.43;;;6.90;99.90;;;;;;5017301;28;20124;-76
2021/11/09 08:28:48;;;;;;;28.23;6.30;;;7.00;99.90;;;;;;5034955;28;20025;-76
2021/11/09 08:31:16;;;;;;;18.73;4.97;;;7.00;99.90;;;;;;5017434;28;20030;-76
2021/11/09 08:33:43;;;;;;;17.33;5.05;;;7.00;99.90;;;;;;5035623;28;20115;-76
2021/11/09 08:36:12;;;;;;;14.85;4.63;;;7.10;99.90;;;;;;5035642;28;20022;-76
2021/11/09 08:38:37;;;;;;;;;;;7.20;99.90;;;;;;5036102;28;20060;-76
2021/11/09 08:41:05;;;;;;;14.05;3.80;;;7.20;99.90;;;;;;5017896;28;19956;-76
2021/11/09 08:43:34;;;;;;;22.13;3.67;;;7.30;99.90;;;;;;5035610;28;20021;-76
2021/11/09 08:46:16;;;;;;;14.38;5.10;;;7.40;99.90;;;;;;5017713;28;20537;-76
2021/11/09 08:48:45;;;;;;;20.58;4.60;;;7.40;99.90;;;;;;5035319;28;20370;-76
2021/11/09 08:51:12;;;;;;;15.50;4.65;;;7.50;99.90;;;;;;5017094;28;20108;-76
2021/11/09 08:53:45;;;;;;;18.98;4.25;;;7.60;99.90;;;;;;5035406;28;20501;-76
2021/11/09 09:04:20;;;;;;;16.40;4.60;;;7.90;99.90;;;;;;5035103;28;20025;-76
2021/11/09 09:06:52;;;;;;;15.50;4.00;;;8.00;99.90;;;;;;5034750;28;20029;-76
2021/11/09 09:09:19;;;;;;;21.05;4.35;;;8.00;99.90;;;;;;5034658;28;20481;-76
2021/11/09 09:11:49;;;;;;;18.63;4.45;;;8.10;99.90;;;;;;5016905;28;20025;-76
2021/11/09 09:14:18;;;;;;;18.77;5.88;;;8.10;99.90;;;;;;5017346;28;20559;-76
2021/11/09 09:16:46;;;;;;;18.63;4.15;;;8.20;99.90;;;;;;5034796;28;20025;-76
2021/11/09 09:19:13;;;;;;;26.42;5.30;;;8.20;99.90;;;;;;5034854;28;20017;-76
2021/11/09 09:21:43;;;;;;;21.55;4.20;;;8.30;99.90;;;;;;5017299;28;20371;-76
2021/11/09 09:24:25;;;;;;;13.52;3.78;;;8.40;99.90;;;;;;5017319;28;20036;-76
2021/11/09 09:54:06;;;;;;;16.40;4.38;;;9.10;99.90;;;;;;5034469;28;20036;-76
2021/11/09 09:56:46;;;;;;;16.48;3.67;;;9.20;99.90;;;;;;5034368;28;20018;-76
2021/11/09 09:59:13;;;;;;;11.60;3.25;;;9.30;99.90;;;;;;5017064;28;20504;-76
2021/11/09 10:01:42;;;;;;;20.35;5.47;;;9.30;99.90;;;;;;5034561;28;20101;-76
2021/11/09 10:04:31;;;;;;;16.65;4.03;;;9.30;99.90;;;;;;5016964;28;20045;-76
2021/11/09 10:06:57;;;;;;;16.30;3.33;;;9.30;99.90;;;;;;5017081;28;20035;-75
2021/11/09 10:09:49;;;;;;;22.73;4.65;;;9.30;99.90;;;;;;5034495;28;20018;-76
2021/11/09 10:12:35;;;;;;;18.25;3.75;;;9.30;99.90;;;;;;5029618;28;20560;-76
2021/11/09 10:15:16;;;;;;;22.77;4.45;;;9.40;99.90;;;;;;5034620;28;20022;-76
2021/11/09 10:17:47;;;;;;;25.90;4.10;;;9.50;99.90;;;;;;5034132;28;20033;-76
2021/11/09 10:20:15;;;;;;;16.67;4.72;;;9.60;99.90;;;;;;5016245;28;20478;-76
2021/11/09 10:22:42;;;;;;;22.87;4.10;;;9.70;99.90;;;;;;5016004;28;20034;-76
2021/11/09 10:25:15;;;;;;;26.23;3.95;;;9.80;99.90;;;;;;5033931;28;20030;-76
2021/11/09 10:27:42;;;;;;;15.55;3.10;;;9.80;99.90;;;;;;5034493;28;20070;-76
2021/11/09 10:30:16;;;;;;;15.60;2.92;;;9.80;99.90;;;;;;5016200;28;20033;-76
2021/11/09 10:32:44;;;;;;;12.82;3.22;;;9.80;99.90;;;;;;5033992;28;20084;-76
2021/11/09 10:35:11;;;;;;;15.63;3.92;;;9.80;99.90;;;;;;5016326;28;20109;-76
2021/11/09 10:37:39;;;;;;;14.48;3.60;;;9.80;99.90;;;;;;5034182;28;20049;-76
2021/11/09 10:40:17;;;;;;;22.50;4.57;;;9.80;99.90;;;;;;5033974;28;20074;-76
2021/11/09 10:42:46;;;;;;;25.45;3.85;;;9.90;99.90;;;;;;5016310;28;20030;-76
2021/11/09 10:45:14;;;;;;;12.60;2.90;;;9.90;99.90;;;;;;5033775;28;20033;-76
2021/11/09 10:47:42;;;;;;;15.80;3.03;;;10.00;99.90;;;;;;5033512;28;20025;-76
2021/11/09 10:50:11;;;;;;;21.53;5.40;;;10.10;99.90;;;;;;5016146;28;20176;-77
2021/11/09 10:52:39;;;;;;;19.50;4.03;;;10.10;99.90;;;;;;5037621;28;20022;-76
2021/11/09 10:55:24;;;;;;;19.77;4.43;;;10.20;99.90;;;;;;5037028;28;20025;-77
2021/11/09 10:58:16;;;;;;;18.98;3.85;;;10.30;99.90;;;;;;5037301;28;20100;-76
2021/11/09 11:03:49;;;;;;;11.60;3.58;;;10.40;99.90;;;;;;5037231;28;20100;-76
2021/11/09 11:06:20;;;;;;;14.23;3.63;;;10.40;99.90;;;;;;5037210;28;20392;-75
2021/11/09 11:08:48;;;;;;;15.13;3.25;;;10.50;99.90;;;;;;5018840;28;20108;-76
2021/11/09 11:11:28;;;;;;;13.95;3.90;;;10.50;99.90;;;;;;5037148;28;20026;-76
2021/11/09 11:14:16;;;;;;;14.27;4.15;;;10.50;99.90;;;;;;5018955;28;20052;-76
2021/11/09 11:16:49;;;;;;;11.98;3.22;;;10.40;99.90;;;;;;5002200;28;20037;-76
2021/11/09 11:19:30;;;;;;;13.65;4.05;;;10.50;99.90;;;;;;5036125;28;20036;-76
2021/11/09 11:21:58;;;;;;;12.65;3.33;;;10.60;99.90;;;;;;5036539;28;20021;-76
2021/11/09 11:24:24;;;;;;;14.15;3.42;;;10.50;99.90;;;;;;5018874;28;20049;-76
2021/11/09 11:26:51;;;;;;;15.65;4.25;;;10.60;99.90;;;;;;5036594;28;20040;-76
2021/11/09 11:29:18;;;;;;;19.88;4.03;;;10.60;99.90;;;;;;5018478;28;20021;-76
2021/11/09 11:31:46;;;;;;;11.88;2.95;;;10.70;99.90;;;;;;5018610;28;20036;-76
2021/11/09 11:34:17;;;;;;;13.23;3.67;;;10.70;99.90;;;;;;5036343;28;20064;-76
2021/11/09 11:36:44;;;;;;;19.63;4.57;;;10.80;99.90;;;;;;5018534;28;20029;-76
2021/11/09 11:39:11;;;;;;;14.70;3.38;;;10.80;99.90;;;;;;5035905;28;20486;-76
2021/11/09 11:41:40;;;;;;;15.48;4.78;;;10.90;99.90;;;;;;5035918;28;20026;-76
2021/11/09 11:44:08;;;;;;;19.35;3.67;;;10.90;99.90;;;;;;5036106;28;20091;-76
2021/11/09 11:46:34;;;;;;;15.98;3.63;;;11.10;99.90;;;;;;5036026;28;20087;-76
2021/11/09 11:49:07;;;;;;;17.73;4.28;;;11.10;99.90;;;;;;5018541;28;20029;-76
2021/11/09 11:51:36;;;;;;;12.23;3.63;;;11.10;99.90;;;;;;5036575;28;20036;-75
2021/11/09 11:54:02;;;;;;;17.60;4.82;;;11.00;99.90;;;;;;5018736;28;20024;-76
2021/11/09 11:56:44;;;;;;;16.55;4.30;;;11.00;99.90;;;;;;5018458;28;20028;-76
2021/11/09 11:59:18;;;;;;;12.43;3.88;;;11.00;99.90;;;;;;5036314;28;20020;-76
2021/11/09 12:01:45;;;;;;;18.38;3.40;;;11.00;99.90;;;;;;5034912;28;20032;-76
2021/11/09 12:04:40;;;;;;;19.20;4.30;;;11.00;99.90;;;;;;5018018;28;20083;-76
2021/11/09 12:07:19;;;;;;;11.95;3.65;;;11.10;99.90;;;;;;5035607;28;20025;-76
2021/11/09 12:10:03;;;;;;;17.45;3.60;;;11.10;99.90;;;;;;5036142;28;20116;-76
2021/11/09 12:12:31;;;;;;;14.52;5.03;;;11.20;99.90;;;;;;5018174;28;20028;-76
2021/11/09 12:15:00;;;;;;;13.82;3.67;;;11.20;99.90;;;;;;5036454;28;20048;-76
2021/11/09 12:17:42;;;;;;;;;;;11.10;99.90;;;;;;5017981;28;20022;-76
2021/11/09 12:20:13;;;;;;;9.48;3.22;;;11.10;99.90;;;;;;5035442;28;19980;-76
2021/11/09 12:22:50;;;;;;;16.80;3.60;;;11.00;99.90;;;;;;5017686;28;20121;-76
2021/11/09 12:25:22;;;;;;;11.27;3.33;;;11.10;99.90;;;;;;5035995;28;20030;-76
2021/11/09 12:27:54;;;;;;;9.82;2.67;;;11.30;99.90;;;;;;5035099;28;20036;-76
2021/11/09 12:30:44;;;;;;;14.05;3.45;;;11.50;99.90;;;;;;5035313;28;20162;-76
2021/11/09 12:33:17;;;;;;;21.33;4.00;;;11.60;99.90;;;;;;5017434;28;20075;-76
2021/11/09 12:36:06;;;;;;;12.35;3.67;;;11.70;99.90;;;;;;5017227;28;20060;-76
2021/11/09 12:38:53;;;;;;;10.90;3.10;;;11.80;99.90;;;;;;5022463;28;20112;-76
2021/11/09 12:41:22;;;;;;;10.35;2.30;;;11.90;99.90;;;;;;5034936;28;20108;-76
2021/11/09 12:43:55;;;;;;;11.70;2.08;;;12.00;99.90;;;;;;5016996;28;20053;-76
2021/11/09 12:46:23;;;;;;;10.32;2.67;;;12.10;99.90;;;;;;5034633;28;20025;-76
2021/11/09 12:49:04;;;;;;;7.82;2.38;;;12.10;99.90;;;;;;5034514;28;20104;-76
2021/11/09 12:51:43;;;;;;;11.93;2.45;;;12.10;99.90;;;;;;5034406;28;20105;-76
2021/11/09 12:54:11;;;;;;;9.20;2.60;;;12.00;99.90;;;;;;5034350;28;20022;-76
2021/11/09 12:56:43;;;;;;;15.50;2.27;;;12.10;99.90;;;;;;5034546;28;20025;-76
2021/11/09 12:59:20;;;;;;;11.77;3.03;;;12.10;99.90;;;;;;5034260;28;20782;-77
2021/11/09 13:04:27;;;;;;;20.02;4.53;;;12.20;99.90;;;;;;5034609;28;20033;-77
2021/11/09 13:07:09;;;;;;;9.68;1.52;;;12.30;99.90;;;;;;5034156;28;20129;-76
2021/11/09 13:09:45;;;;;;;10.15;2.17;;;12.30;99.90;;;;;;5034086;28;20108;-76
2021/11/09 13:12:23;;;;;;;11.57;1.70;;;12.40;99.90;;;;;;5034017;28;20479;-76
2021/11/09 13:14:58;;;;;;;7.80;1.67;;;12.50;99.90;;;;;;5033932;28;20489;-77
2021/11/09 13:17:31;;;;;;;12.77;3.28;;;12.50;99.90;;;;;;5016298;28;20029;-76
2021/11/09 13:23:13;;;;;;;10.27;2.33;;;12.50;99.90;;;;;;4989456;28;20072;-76
2021/11/09 13:25:43;;;;;;;9.20;1.65;;;12.50;99.90;;;;;;5016187;28;20029;-76
2021/11/09 13:28:12;;;;;;;11.07;1.73;;;12.50;99.90;;;;;;5016014;28;20037;-77
2021/11/09 13:30:39;;;;;;;16.60;2.35;;;12.50;99.90;;;;;;5033614;28;20022;-77
2021/11/09 13:33:05;;;;;;;7.45;1.98;;;12.50;99.90;;;;;;5033698;28;20079;-76
2021/11/09 13:35:35;;;;;;;8.48;2.53;;;12.50;99.90;;;;;;5033714;28;20433;-77
2021/11/09 13:38:10;;;;;;;12.85;3.30;;;12.50;99.90;;;;;;5015842;28;20049;-76
2021/11/09 13:40:46;;;;;;;13.52;3.75;;;12.40;99.90;;;;;;5015970;28;20034;-76
2021/11/09 13:43:15;;;;;;;11.13;3.10;;;12.30;99.90;;;;;;5033713;28;20029;-76
2021/11/09 13:45:42;;;;;;;13.93;2.50;;;12.20;99.90;;;;;;5034051;28;20032;-76
2021/11/09 13:48:20;;;;;;;11.60;3.08;;;12.20;99.90;;;;;;5015780;28;20059;-76
2021/11/09 13:50:53;;;;;;;21.38;3.38;;;12.10;99.90;;;;;;5034164;28;20048;-76
2021/11/09 13:53:27;;;;;;;8.80;2.85;;;12.10;99.90;;;;;;5015829;28;20021;-76
2021/11/09 13:55:53;;;;;;;14.30;2.85;;;12.00;99.90;;;;;;5015740;28;20108;-76
2021/11/09 13:58:20;;;;;;;11.38;3.13;;;12.00;99.90;;;;;;5033613;28;20069;-76
2021/11/09 14:00:49;;;;;;;8.38;3.08;;;12.00;99.90;;;;;;5015501;28;20056;-76
2021/11/09 14:06:33;;;;;;;16.67;3.17;;;12.00;99.90;;;;;;5033654;28;20379;-77
2021/11/09 14:09:09;;;;;;;17.50;5.10;;;11.90;99.90;;;;;;5015557;28;20475;-77
2021/11/09 14:16:54;;;;;;;13.57;4.32;;;11.80;99.90;;;;;;5038396;28;20091;-78
2021/11/09 14:19:27;;;;;;;17.00;2.72;;;11.80;99.90;;;;;;5038405;28;20486;-79
2021/11/09 14:21:53;;;;;;;15.15;4.28;;;11.70;99.90;;;;;;5019171;28;20540;-79
2021/11/09 14:24:23;;;;;;;14.07;2.85;;;11.70;99.90;;;;;;5001997;28;20018;-79
2021/11/09 14:27:14;;;;;;;17.63;3.08;;;11.70;99.90;;;;;;5022494;28;20029;-79
2021/11/09 14:30:00;;;;;;;12.20;3.20;;;11.70;99.90;;;;;;5004036;28;20018;-79
2021/11/09 14:32:36;;;;;;;13.40;2.97;;;11.70;99.90;;;;;;5023686;28;20061;-79
2021/11/09 14:35:25;;;;;;;13.45;3.60;;;11.60;99.90;;;;;;5021782;28;20025;-80
2021/11/09 14:40:33;;;;;;;13.82;3.40;;;11.70;99.90;;;;;;5036343;28;20409;-80
2021/11/09 14:43:11;;;;;;;16.63;3.53;;;11.70;99.90;;;;;;5037880;28;20067;-80
2021/11/09 14:48:08;;;;;;;18.33;2.60;;;11.50;99.90;;;;;;5038327;28;19909;-78
2021/11/09 14:50:42;;;;;;;18.80;4.28;;;11.60;99.90;;;;;;5020476;28;20028;-79
2021/11/09 14:53:22;;;;;;;13.52;3.78;;;11.60;99.90;;;;;;5038778;28;20022;-80
2021/11/09 14:55:54;;;;;;;14.20;3.40;;;11.60;99.90;;;;;;5019266;28;20390;-77
2021/11/09 14:58:26;;;;;;;14.98;3.40;;;11.60;99.90;;;;;;5019481;28;20021;-77
2021/11/09 15:00:54;;;;;;;18.90;2.72;;;11.60;99.90;;;;;;5037183;28;20091;-77
2021/11/09 15:03:20;;;;;;;10.02;2.85;;;11.60;99.90;;;;;;5019665;28;20036;-77
2021/11/09 15:05:46;;;;;;;17.27;2.88;;;11.50;99.90;;;;;;5019396;28;20021;-78
2021/11/09 15:08:21;;;;;;;15.07;3.28;;;11.50;99.90;;;;;;5018842;28;20093;-77
2021/11/09 15:30:00;;;;;;;16.55;3.13;;;11.30;99.90;;;;;;4937073;29;20127;-77
2021/11/09 15:32:36;;;;;;;18.90;3.88;;;11.30;99.90;;;;;;5018139;28;20044;-77
2021/11/09 15:35:13;;;;;;;9.38;2.55;;;11.30;99.90;;;;;;5037193;28;20017;-78
2021/11/09 15:37:50;;;;;;;16.52;4.40;;;11.20;99.90;;;;;;5036205;28;20075;-76